createdAt,value
2023-04-08T00:00:09.273Z,9.52
2023-04-08T00:03:00.837Z,9.38
2023-04-08T00:06:01.715Z,9.57
2023-04-08T00:08:42.184Z,9.20
2023-04-08T00:11:09.109Z,9.11
2023-04-08T00:13:36.389Z,8.55
2023-04-08T00:16:03.456Z,9.04
2023-04-08T00:18:30.527Z,8.30
2023-04-08T00:21:17.680Z,8.64
2023-04-08T00:23:58.203Z,8.48
2023-04-08T00:26:26.558Z,8.20
2023-04-08T00:28:53.588Z,8.16
2023-04-08T00:31:20.876Z,8.51
2023-04-08T00:33:48.002Z,8.33
2023-04-08T00:36:14.919Z,7.99
2023-04-08T00:38:41.979Z,8.52
2023-04-08T00:41:08.861Z,8.07
2023-04-08T00:43:36.022Z,7.98
2023-04-08T00:46:22.810Z,8.37
2023-04-08T00:49:03.281Z,7.90
2023-04-08T00:51:31.417Z,8.28
2023-04-08T00:53:58.552Z,7.94
2023-04-08T00:56:26.233Z,7.79
2023-04-08T00:58:55.303Z,7.93
2023-04-08T01:02:13.004Z,8.08
2023-04-08T01:05:13.280Z,7.68
2023-04-08T01:07:50.533Z,7.51
2023-04-08T01:10:23.861Z,7.18
2023-04-08T01:12:56.351Z,7.28
2023-04-08T01:15:26.340Z,7.23
2023-04-08T01:17:56.090Z,7.01
2023-04-08T01:20:43.713Z,7.54
2023-04-08T01:23:54.736Z,7.46
2023-04-08T01:26:36.246Z,7.24
2023-04-08T01:29:04.932Z,6.63
2023-04-08T01:31:32.600Z,6.87
2023-04-08T01:34:01.654Z,7.22
2023-04-08T01:36:29.492Z,7.19
2023-04-08T01:38:57.011Z,7.22
2023-04-08T01:41:24.242Z,6.98
2023-04-08T01:43:53.687Z,6.05
2023-04-08T01:46:42.773Z,7.12
2023-04-08T01:49:25.109Z,6.89
2023-04-08T01:51:55.508Z,7.18
2023-04-08T01:54:22.550Z,6.77
2023-04-08T01:56:51.608Z,7.29
2023-04-08T01:59:21.762Z,7.03
2023-04-08T02:01:56.836Z,6.54
2023-04-08T02:04:50.773Z,6.91
2023-04-08T02:07:24.560Z,7.01
2023-04-08T02:09:51.651Z,6.99
2023-04-08T02:12:19.080Z,7.04
2023-04-08T02:14:47.261Z,7.25
2023-04-08T02:17:25.055Z,7.52
2023-04-08T02:20:26.764Z,7.69
2023-04-08T02:23:33.755Z,7.79
2023-04-08T02:26:25.798Z,7.79
2023-04-08T02:28:56.208Z,7.52
2023-04-08T02:31:24.656Z,6.96
2023-04-08T02:33:52.983Z,7.35
2023-04-08T02:36:22.228Z,6.77
2023-04-08T02:38:50.481Z,6.82
2023-04-08T02:41:17.678Z,7.17
2023-04-08T02:43:44.646Z,7.11
2023-04-08T02:46:31.761Z,7.24
2023-04-08T02:49:12.370Z,7.25
2023-04-08T02:51:39.377Z,6.84
2023-04-08T02:54:06.359Z,7.49
2023-04-08T02:56:33.336Z,7.33
2023-04-08T02:59:00.497Z,7.70
2023-04-08T03:01:27.570Z,7.53
2023-04-08T03:03:54.612Z,7.66
2023-04-08T03:06:21.651Z,7.68
2023-04-08T03:08:48.915Z,8.03
2023-04-08T03:11:16.117Z,7.97
2023-04-08T03:13:43.018Z,7.72
2023-04-08T03:16:09.957Z,7.84
2023-04-08T03:18:36.913Z,8.02
2023-04-08T03:21:23.817Z,7.78
2023-04-08T03:24:04.420Z,7.55
2023-04-08T03:26:31.414Z,7.30
2023-04-08T03:28:58.412Z,7.59
2023-04-08T03:31:26.142Z,7.67
2023-04-08T03:33:53.060Z,7.01
2023-04-08T03:36:19.992Z,7.30
2023-04-08T03:38:46.954Z,7.15
2023-04-08T03:41:33.803Z,7.08
2023-04-08T03:44:34.818Z,6.91
2023-04-08T03:47:35.875Z,6.67
2023-04-08T03:50:03.573Z,7.16
2023-04-08T03:52:30.610Z,7.09
2023-04-08T03:54:58.167Z,6.69
2023-04-08T03:57:25.366Z,6.67
2023-04-08T04:00:12.812Z,7.02
2023-04-08T04:03:13.987Z,6.64
2023-04-08T04:06:08.050Z,7.17
2023-04-08T04:08:48.319Z,6.86
2023-04-08T04:11:15.469Z,7.02
2023-04-08T04:13:42.433Z,6.79
2023-04-08T04:16:09.487Z,6.73
2023-04-08T04:18:36.546Z,6.64
2023-04-08T04:21:23.799Z,6.52
2023-04-08T04:24:04.615Z,6.74
2023-04-08T04:26:31.540Z,6.89
2023-04-08T04:28:58.510Z,6.74
2023-04-08T04:31:28.900Z,6.49
2023-04-08T04:33:55.894Z,6.72
2023-04-08T04:36:22.972Z,6.94
2023-04-08T04:38:51.434Z,6.24
2023-04-08T04:41:38.846Z,6.29
2023-04-08T04:44:39.823Z,6.60
2023-04-08T04:47:20.465Z,6.55
2023-04-08T04:49:47.612Z,6.07
2023-04-08T04:52:14.667Z,6.42
2023-04-08T04:54:41.633Z,6.53
2023-04-08T04:57:08.624Z,6.38
2023-04-08T04:59:35.871Z,6.13
2023-04-08T05:02:03.115Z,6.06
2023-04-08T05:04:30.580Z,6.38
2023-04-08T05:06:59.605Z,6.52
2023-04-08T05:09:26.636Z,6.69
2023-04-08T05:11:53.569Z,6.55
2023-04-08T05:14:20.468Z,6.62
2023-04-08T05:16:47.968Z,6.55
2023-04-08T05:19:14.979Z,6.75
2023-04-08T05:22:01.852Z,6.88
2023-04-08T05:24:56.066Z,7.48
2023-04-08T05:27:49.853Z,8.17
2023-04-08T05:30:31.116Z,8.14
2023-04-08T05:33:00.432Z,8.88
2023-04-08T05:35:28.894Z,8.86
2023-04-08T05:37:56.183Z,8.84
2023-04-08T05:40:42.871Z,9.29
2023-04-08T05:43:23.421Z,9.33
2023-04-08T05:45:50.382Z,9.97
2023-04-08T05:48:17.292Z,9.78
2023-04-08T05:50:44.311Z,10.38
2023-04-08T05:53:11.418Z,10.87
2023-04-08T05:55:38.413Z,11.13
2023-04-08T05:58:05.503Z,11.53
2023-04-08T06:00:32.404Z,12.07
2023-04-08T06:02:59.938Z,12.11
2023-04-08T06:05:27.100Z,11.45
2023-04-08T06:07:53.960Z,9.09
2023-04-08T06:10:20.859Z,9.35
2023-04-08T06:12:47.757Z,9.30
2023-04-08T06:15:14.636Z,10.35
2023-04-08T06:17:42.960Z,9.72
2023-04-08T06:20:29.886Z,8.93
2023-04-08T06:23:13.484Z,10.05
2023-04-08T06:25:40.365Z,10.70
2023-04-08T06:28:07.231Z,11.25
2023-04-08T06:30:34.315Z,12.10
2023-04-08T06:33:01.320Z,11.14
2023-04-08T06:35:48.936Z,10.88
2023-04-08T06:38:50.146Z,11.02
2023-04-08T06:41:50.882Z,12.78
2023-04-08T06:44:54.534Z,13.99
2023-04-08T06:47:21.535Z,13.88
2023-04-08T06:49:48.517Z,13.56
2023-04-08T06:52:15.890Z,12.87
2023-04-08T06:54:43.426Z,13.59
2023-04-08T06:57:10.364Z,11.13
2023-04-08T06:59:37.279Z,11.51
2023-04-08T07:02:04.293Z,12.64
2023-04-08T07:04:31.708Z,13.11
2023-04-08T07:06:58.618Z,12.79
2023-04-08T07:09:25.520Z,11.41
2023-04-08T07:11:52.512Z,12.39
2023-04-08T07:14:19.841Z,12.86
2023-04-08T07:16:46.986Z,14.06
2023-04-08T07:19:13.935Z,14.57
2023-04-08T07:22:00.922Z,15.04
2023-04-08T07:24:43.487Z,15.39
2023-04-08T07:27:10.635Z,15.10
2023-04-08T07:29:37.470Z,14.27
2023-04-08T07:32:04.566Z,13.78
2023-04-08T07:34:51.940Z,14.51
2023-04-08T07:37:42.109Z,14.94
2023-04-08T07:40:28.934Z,15.26
2023-04-08T07:43:29.932Z,13.89
2023-04-08T07:46:10.626Z,12.27
2023-04-08T07:48:37.670Z,13.29
2023-04-08T07:51:09.599Z,12.42
2023-04-08T07:53:38.868Z,12.60
2023-04-08T07:56:16.256Z,13.24
2023-04-08T07:58:43.626Z,13.28
2023-04-08T08:01:22.673Z,12.66
2023-04-08T08:03:52.400Z,12.67
2023-04-08T08:06:20.007Z,12.44
2023-04-08T08:09:06.942Z,13.48
2023-04-08T08:11:47.660Z,14.34
2023-04-08T08:14:15.792Z,14.22
2023-04-08T08:16:42.733Z,12.94
2023-04-08T08:19:09.734Z,12.91
2023-04-08T08:21:56.985Z,12.97
2023-04-08T08:24:38.110Z,13.59
2023-04-08T08:27:06.501Z,14.59
2023-04-08T08:29:33.705Z,15.62
2023-04-08T08:32:00.692Z,14.61
2023-04-08T08:34:27.975Z,13.22
2023-04-08T08:36:54.902Z,14.74
2023-04-08T08:39:41.995Z,14.97
2023-04-08T08:42:42.952Z,14.88
2023-04-08T08:45:27.921Z,15.63
2023-04-08T08:47:54.838Z,15.75
2023-04-08T08:50:21.821Z,15.14
2023-04-08T08:52:52.568Z,16.70
2023-04-08T08:55:36.264Z,16.20
2023-04-08T08:58:08.141Z,14.20
2023-04-08T09:00:39.873Z,14.32
2023-04-08T09:03:27.937Z,14.76
2023-04-08T09:06:01.130Z,16.10
2023-04-08T09:08:36.070Z,16.95
2023-04-08T09:11:14.890Z,17.56
2023-04-08T09:13:42.764Z,17.43
2023-04-08T09:16:16.722Z,16.06
2023-04-08T09:18:49.228Z,16.21
2023-04-08T09:21:37.064Z,15.22
2023-04-08T09:24:37.035Z,16.21
2023-04-08T09:27:33.976Z,16.16
2023-04-08T09:30:16.749Z,16.67
2023-04-08T09:32:54.761Z,17.47
2023-04-08T09:35:22.536Z,17.64
2023-04-08T09:37:50.188Z,16.71
2023-04-08T09:40:40.000Z,17.30
2023-04-08T09:43:24.175Z,18.24
2023-04-08T09:45:52.267Z,18.47
2023-04-08T09:48:27.868Z,19.08
2023-04-08T09:50:57.962Z,19.08
2023-04-08T09:53:49.167Z,19.51
2023-04-08T09:56:17.462Z,19.21
2023-04-08T09:58:59.332Z,16.06
2023-04-08T10:01:37.600Z,17.63
2023-04-08T10:04:09.690Z,18.50
2023-04-08T10:06:58.006Z,19.05
2023-04-08T10:09:44.015Z,19.28
2023-04-08T10:12:10.983Z,19.12
2023-04-08T10:14:39.150Z,18.49
2023-04-08T10:17:30.304Z,18.36
2023-04-08T10:20:17.087Z,17.67
2023-04-08T10:23:13.530Z,15.86
2023-04-08T10:25:45.295Z,15.96
2023-04-08T10:28:12.381Z,17.05
2023-04-08T10:30:52.647Z,16.83
2023-04-08T10:33:33.018Z,16.18
2023-04-08T10:36:00.169Z,16.81
2023-04-08T10:38:27.447Z,17.10
2023-04-08T10:41:15.026Z,16.45
2023-04-08T10:44:19.047Z,17.13
2023-04-08T10:47:00.294Z,18.05
2023-04-08T10:49:34.959Z,17.88
2023-04-08T10:52:07.479Z,16.24
2023-04-08T10:54:34.673Z,16.89
2023-04-08T10:57:01.712Z,17.77
2023-04-08T10:59:32.179Z,18.60
2023-04-08T11:02:00.701Z,19.43
2023-04-08T11:04:27.785Z,18.68
2023-04-08T11:06:54.870Z,19.11
2023-04-08T11:09:21.882Z,19.83
2023-04-08T11:11:48.914Z,19.61
2023-04-08T11:14:19.775Z,20.21
2023-04-08T11:17:08.047Z,19.78
2023-04-08T11:19:49.052Z,20.43
2023-04-08T11:22:38.074Z,20.61
2023-04-08T11:25:18.809Z,20.65
2023-04-08T11:27:46.510Z,20.64
2023-04-08T11:30:13.681Z,20.55
2023-04-08T11:32:41.186Z,20.38
2023-04-08T11:35:08.444Z,20.30
2023-04-08T11:37:40.030Z,20.85
2023-04-08T11:40:27.047Z,20.37
2023-04-08T11:43:12.254Z,21.11
2023-04-08T11:45:40.445Z,21.26
2023-04-08T11:48:29.089Z,20.70
2023-04-08T11:51:30.072Z,20.60
2023-04-08T11:54:32.731Z,20.69
2023-04-08T11:57:00.021Z,20.51
2023-04-08T11:59:29.025Z,20.46
2023-04-08T12:01:56.845Z,20.69
2023-04-08T12:04:23.849Z,20.40
2023-04-08T12:06:50.897Z,19.92
2023-04-08T12:09:17.814Z,20.26
2023-04-08T12:11:44.935Z,18.58
2023-04-08T12:14:11.861Z,18.42
2023-04-08T12:16:38.920Z,19.06
2023-04-08T12:19:05.916Z,18.69
2023-04-08T12:21:53.127Z,19.28
2023-04-08T12:24:34.660Z,19.31
2023-04-08T12:27:03.329Z,19.54
2023-04-08T12:29:30.350Z,19.93
2023-04-08T12:31:57.320Z,20.30
2023-04-08T12:34:24.857Z,19.55
2023-04-08T12:36:51.759Z,19.65
2023-04-08T12:39:39.108Z,19.65
2023-04-08T12:42:19.704Z,20.00
2023-04-08T12:44:46.747Z,19.85
2023-04-08T12:47:13.773Z,20.27
2023-04-08T12:52:10.639Z,20.37
2023-04-08T12:54:37.624Z,20.61
2023-04-08T12:57:04.737Z,20.20
2023-04-08T12:59:33.565Z,18.76
2023-04-08T13:02:00.733Z,18.55
2023-04-08T13:04:27.645Z,18.68
2023-04-08T13:06:55.724Z,18.68
2023-04-08T13:09:23.057Z,18.07
2023-04-08T13:11:50.138Z,18.25
2023-04-08T13:14:17.502Z,17.34
2023-04-08T13:17:04.180Z,17.48
2023-04-08T13:20:05.160Z,17.53
2023-04-08T13:23:09.143Z,18.00
2023-04-08T13:25:49.763Z,17.72
2023-04-08T13:28:16.909Z,17.54
2023-04-08T13:30:43.904Z,17.94
2023-04-08T13:33:10.804Z,18.17
2023-04-08T13:35:37.841Z,18.25
2023-04-08T13:38:04.763Z,18.60
2023-04-08T13:40:52.147Z,18.57
2023-04-08T13:43:32.822Z,19.00
2023-04-08T13:45:59.688Z,19.17
2023-04-08T13:48:26.768Z,19.06
2023-04-08T13:50:53.665Z,19.20
2023-04-08T13:53:20.798Z,18.54
2023-04-08T13:55:47.726Z,18.89
2023-04-08T13:58:23.463Z,18.83
2023-04-08T14:00:52.007Z,18.79
2023-04-08T14:03:19.430Z,19.03
2023-04-08T14:05:46.626Z,19.14
2023-04-08T14:08:13.974Z,19.06
2023-04-08T14:10:42.221Z,18.69
2023-04-08T14:13:09.452Z,18.12
2023-04-08T14:15:36.594Z,17.92
2023-04-08T14:18:03.602Z,18.02
2023-04-08T14:20:51.290Z,17.67
2023-04-08T14:23:52.189Z,18.33
2023-04-08T14:26:35.920Z,18.58
2023-04-08T14:29:04.828Z,18.58
2023-04-08T14:31:52.199Z,17.86
2023-04-08T14:34:32.940Z,18.32
2023-04-08T14:36:59.928Z,18.00
2023-04-08T14:39:47.198Z,18.28
2023-04-08T14:42:27.839Z,18.48
2023-04-08T14:44:54.812Z,18.35
2023-04-08T14:47:42.198Z,18.55
2023-04-08T14:50:22.835Z,18.31
2023-04-08T14:53:10.195Z,18.81
2023-04-08T14:55:51.212Z,18.36
2023-04-08T14:58:19.990Z,18.32
2023-04-08T15:00:47.861Z,18.93
2023-04-08T15:03:15.684Z,18.97
2023-04-08T15:05:55.975Z,18.81
2023-04-08T15:08:22.939Z,19.10
2023-04-08T15:10:49.973Z,18.99
2023-04-08T15:13:17.315Z,19.23
2023-04-08T15:15:44.374Z,18.84
2023-04-08T15:18:11.566Z,19.17
2023-04-08T15:20:59.204Z,19.10
2023-04-08T15:23:42.074Z,19.32
2023-04-08T15:26:10.055Z,19.64
2023-04-08T15:28:38.223Z,19.34
2023-04-08T15:31:05.943Z,19.77
2023-04-08T15:33:33.192Z,19.64
2023-04-08T15:36:04.117Z,19.57
2023-04-08T15:38:51.505Z,19.37
2023-04-08T15:41:52.211Z,18.89
2023-04-08T15:44:33.083Z,19.40
2023-04-08T15:47:00.308Z,18.95
2023-04-08T15:49:27.270Z,19.27
2023-04-08T15:51:54.324Z,19.50
2023-04-08T15:54:21.399Z,19.50
2023-04-08T15:56:48.322Z,19.41
2023-04-08T15:59:15.608Z,19.60
2023-04-08T16:01:42.696Z,19.48
2023-04-08T16:04:09.986Z,19.64
2023-04-08T16:06:37.028Z,19.04
2023-04-08T16:09:04.290Z,18.88
2023-04-08T16:11:31.463Z,19.32
2023-04-08T16:13:58.309Z,18.84
2023-04-08T16:16:25.787Z,18.59
2023-04-08T16:19:14.412Z,18.93
2023-04-08T16:22:15.251Z,18.85
2023-04-08T16:25:04.787Z,18.73
2023-04-08T16:27:31.668Z,18.43
2023-04-08T16:29:58.640Z,18.82
2023-04-08T16:32:46.248Z,18.10
2023-04-08T16:35:27.232Z,18.12
2023-04-08T16:38:14.268Z,18.02
2023-04-08T16:41:06.217Z,18.14
2023-04-08T16:43:33.098Z,17.38
2023-04-08T16:45:59.985Z,17.32
2023-04-08T16:48:27.091Z,17.24
2023-04-08T16:51:18.262Z,17.54
2023-04-08T16:54:19.298Z,17.50
2023-04-08T16:57:20.261Z,17.31
2023-04-08T17:00:22.419Z,17.10
2023-04-08T17:02:57.252Z,17.28
2023-04-08T17:05:25.237Z,17.39
2023-04-08T17:07:52.938Z,16.74
2023-04-08T17:10:22.880Z,17.16
2023-04-08T17:12:49.740Z,17.22
2023-04-08T17:15:16.638Z,16.78
2023-04-08T17:17:43.611Z,16.50
2023-04-08T17:20:31.286Z,16.97
2023-04-08T17:23:14.708Z,16.50
2023-04-08T17:25:41.766Z,16.49
2023-04-08T17:28:29.303Z,16.74
2023-04-08T17:31:10.790Z,16.45
2023-04-08T17:33:37.752Z,16.43
2023-04-08T17:36:05.039Z,16.33
2023-04-08T17:38:54.278Z,16.64
2023-04-08T17:41:40.514Z,16.48
2023-04-08T17:44:08.374Z,16.28
2023-04-08T17:46:35.591Z,15.75
2023-04-08T17:49:02.539Z,15.31
2023-04-08T17:51:31.034Z,15.94
2023-04-08T17:53:57.935Z,14.26
2023-04-08T17:56:24.860Z,13.15
2023-04-08T17:59:12.353Z,13.14
2023-04-08T18:02:13.376Z,12.19
2023-04-08T18:05:08.174Z,11.91
2023-04-08T18:07:36.194Z,11.57
2023-04-08T18:10:03.648Z,11.47
2023-04-08T18:12:31.238Z,11.31
2023-04-08T18:15:18.307Z,11.28
2023-04-08T18:17:58.998Z,11.26
2023-04-08T18:20:50.305Z,11.06
2023-04-08T18:23:51.572Z,11.78
2023-04-08T18:26:31.879Z,11.75
2023-04-08T18:29:19.302Z,11.98
2023-04-08T18:32:00.122Z,12.14
2023-04-08T18:34:27.240Z,11.90
2023-04-08T18:36:54.343Z,12.04
2023-04-08T18:39:41.342Z,11.88
2023-04-08T18:42:21.943Z,11.87
2023-04-08T18:44:48.837Z,11.79
2023-04-08T18:47:17.195Z,11.91
2023-04-08T18:49:44.284Z,11.76
2023-04-08T18:52:11.393Z,11.59
2023-04-08T18:54:38.547Z,11.76
2023-04-08T18:57:25.321Z,11.61
2023-04-08T19:00:06.700Z,11.68
2023-04-08T19:02:33.897Z,11.28
2023-04-08T19:05:21.364Z,11.69
2023-04-08T19:08:22.306Z,11.56
2023-04-08T19:11:23.363Z,11.53
2023-04-08T19:14:14.359Z,11.46
2023-04-08T19:17:16.393Z,11.28
2023-04-08T19:20:17.456Z,11.47
2023-04-08T19:23:16.298Z,11.48
2023-04-08T19:25:44.088Z,10.97
2023-04-08T19:28:13.357Z,10.45
2023-04-08T19:30:41.157Z,11.36
2023-04-08T19:33:08.945Z,11.30
2023-04-08T19:35:36.036Z,11.09
2023-04-08T19:38:23.331Z,10.88
2023-04-08T19:41:04.081Z,10.75
2023-04-08T19:43:31.091Z,11.14
2023-04-08T19:45:58.295Z,11.03
2023-04-08T19:48:25.804Z,10.55
2023-04-08T19:50:53.065Z,11.04
2023-04-08T19:53:20.124Z,11.09
2023-04-08T19:55:47.131Z,11.04
2023-04-08T19:58:14.048Z,10.64
2023-04-08T20:00:41.377Z,10.84
2023-04-08T20:03:08.476Z,10.79
2023-04-08T20:05:55.384Z,10.75
2023-04-08T20:08:36.109Z,10.58
2023-04-08T20:11:04.704Z,10.56
2023-04-08T20:13:31.823Z,10.92
2023-04-08T20:16:19.415Z,11.15
2023-04-08T20:19:20.418Z,10.75
2023-04-08T20:22:21.415Z,11.05
2023-04-08T20:25:02.009Z,10.96
2023-04-08T20:27:29.085Z,10.62
2023-04-08T20:29:56.293Z,10.75
2023-04-08T20:32:23.764Z,10.84
2023-04-08T20:34:51.407Z,10.47
2023-04-08T20:37:38.389Z,10.77
2023-04-08T20:40:32.532Z,10.76
2023-04-08T20:43:13.241Z,10.84
2023-04-08T20:45:40.353Z,10.38
2023-04-08T20:48:07.562Z,10.56
2023-04-08T20:50:35.060Z,10.05
2023-04-08T20:53:02.157Z,9.68
2023-04-08T20:55:29.067Z,10.09
2023-04-08T20:57:56.084Z,10.34
2023-04-08T21:00:23.335Z,10.00
2023-04-08T21:02:51.055Z,10.06
2023-04-08T21:05:38.428Z,9.95
2023-04-08T21:08:32.529Z,10.24
2023-04-08T21:10:59.507Z,10.50
2023-04-08T21:13:26.424Z,10.52
2023-04-08T21:15:53.256Z,10.12
2023-04-08T21:18:20.142Z,9.97
2023-04-08T21:21:07.422Z,10.12
2023-04-08T21:24:08.426Z,10.25
2023-04-08T21:26:48.985Z,10.36
2023-04-08T21:29:15.839Z,9.47
2023-04-08T21:31:42.830Z,10.22
2023-04-08T21:34:09.882Z,9.98
2023-04-08T21:36:57.404Z,9.87
2023-04-08T21:39:59.401Z,10.02
2023-04-08T21:42:40.016Z,9.84
2023-04-08T21:45:07.415Z,9.94
2023-04-08T21:47:34.480Z,9.88
2023-04-08T21:50:01.436Z,9.44
2023-04-08T21:52:29.652Z,9.20
2023-04-08T21:54:56.541Z,9.68
2023-04-08T21:57:23.500Z,8.96
2023-04-08T21:59:50.674Z,9.88
2023-04-08T22:02:17.748Z,9.54
2023-04-08T22:04:44.842Z,10.01
2023-04-08T22:07:12.180Z,9.76
2023-04-08T22:09:39.346Z,10.17
2023-04-08T22:12:06.373Z,9.94
2023-04-08T22:14:33.349Z,9.96
2023-04-08T22:17:00.572Z,9.07
2023-04-08T22:19:27.553Z,9.30
2023-04-08T22:22:14.461Z,9.51
2023-04-08T22:24:54.942Z,9.51
2023-04-08T22:27:21.925Z,9.67
2023-04-08T22:29:48.977Z,9.71
2023-04-08T22:32:18.221Z,9.26
2023-04-08T22:34:45.306Z,9.29
2023-04-08T22:37:32.419Z,9.48
2023-04-08T22:40:33.456Z,9.22
2023-04-08T22:43:27.556Z,9.58
2023-04-08T22:45:54.480Z,9.61
2023-04-08T22:48:22.071Z,8.91
2023-04-08T22:50:49.019Z,9.29
2023-04-08T22:53:16.334Z,9.67
2023-04-08T22:55:43.203Z,9.24
2023-04-08T22:58:10.085Z,9.19
2023-04-08T23:00:37.098Z,9.49
2023-04-08T23:03:04.949Z,8.56
2023-04-08T23:05:32.374Z,8.79
2023-04-08T23:07:59.859Z,9.28
2023-04-08T23:10:26.773Z,9.26
2023-04-08T23:12:53.726Z,9.12
2023-04-08T23:15:20.679Z,9.08
2023-04-08T23:17:47.585Z,8.97
2023-04-08T23:20:34.478Z,8.72
2023-04-08T23:23:16.054Z,9.18
2023-04-08T23:25:42.906Z,8.89
2023-04-08T23:28:09.880Z,9.06
2023-04-08T23:30:37.513Z,8.66
2023-04-08T23:33:04.600Z,8.94
2023-04-08T23:35:31.650Z,8.82
2023-04-08T23:38:18.518Z,8.89
2023-04-08T23:40:59.061Z,7.64
2023-04-08T23:43:26.029Z,8.57
2023-04-08T23:45:52.873Z,8.65
2023-04-08T23:48:19.782Z,8.04
2023-04-08T23:50:54.989Z,8.60
2023-04-08T23:53:22.367Z,8.84
2023-04-08T23:55:49.395Z,8.78
2023-04-08T23:58:16.345Z,8.25
